sensor_id;sensor_type;location;lat;lon;timestamp;P1;durP1;ratioP1;P2;durP2;ratioP2
75429;SDS011;64127;51.488;5.462;2023-02-18T00:01:37;26.47;;;23.70;;
75429;SDS011;64127;51.488;5.462;2023-02-18T00:04:09;27.33;;;24.43;;
75429;SDS011;64127;51.488;5.462;2023-02-18T00:06:41;27.83;;;25.00;;
75429;SDS011;64127;51.488;5.462;2023-02-18T00:09:13;28.30;;;24.50;;
75429;SDS011;64127;51.488;5.462;2023-02-18T00:11:45;26.53;;;23.80;;
75429;SDS011;64127;51.488;5.462;2023-02-18T00:14:17;27.57;;;24.50;;
75429;SDS011;64127;51.488;5.462;2023-02-18T00:16:49;28.20;;;25.20;;
75429;SDS011;64127;51.488;5.462;2023-02-18T00:19:22;28.43;;;25.47;;
75429;SDS011;64127;51.488;5.462;2023-02-18T00:21:54;28.33;;;25.20;;
75429;SDS011;64127;51.488;5.462;2023-02-18T00:24:26;27.90;;;24.97;;
75429;SDS011;64127;51.488;5.462;2023-02-18T00:26:58;29.17;;;25.60;;
75429;SDS011;64127;51.488;5.462;2023-02-18T00:29:30;29.03;;;25.30;;
75429;SDS011;64127;51.488;5.462;2023-02-18T00:32:03;29.17;;;24.43;;
75429;SDS011;64127;51.488;5.462;2023-02-18T00:34:35;27.20;;;24.30;;
75429;SDS011;64127;51.488;5.462;2023-02-18T00:37:07;27.10;;;24.40;;
75429;SDS011;64127;51.488;5.462;2023-02-18T00:39:39;27.43;;;24.57;;
75429;SDS011;64127;51.488;5.462;2023-02-18T00:42:10;26.73;;;23.93;;
75429;SDS011;64127;51.488;5.462;2023-02-18T00:44:44;27.17;;;24.37;;
75429;SDS011;64127;51.488;5.462;2023-02-18T00:47:16;27.03;;;24.07;;
75429;SDS011;64127;51.488;5.462;2023-02-18T00:49:48;25.53;;;22.63;;
75429;SDS011;64127;51.488;5.462;2023-02-18T00:52:20;24.53;;;21.93;;
75429;SDS011;64127;51.488;5.462;2023-02-18T00:54:52;25.37;;;21.33;;
75429;SDS011;64127;51.488;5.462;2023-02-18T00:57:24;24.03;;;21.03;;
75429;SDS011;64127;51.488;5.462;2023-02-18T00:59:56;25.20;;;21.60;;
75429;SDS011;64127;51.488;5.462;2023-02-18T01:02:28;22.10;;;19.50;;
75429;SDS011;64127;51.488;5.462;2023-02-18T01:05:00;22.00;;;19.60;;
75429;SDS011;64127;51.488;5.462;2023-02-18T01:07:32;21.40;;;19.10;;
75429;SDS011;64127;51.488;5.462;2023-02-18T01:10:04;22.80;;;18.80;;
75429;SDS011;64127;51.488;5.462;2023-02-18T01:12:37;24.10;;;19.37;;
75429;SDS011;64127;51.488;5.462;2023-02-18T01:15:10;20.43;;;17.93;;
75429;SDS011;64127;51.488;5.462;2023-02-18T01:17:45;23.13;;;19.50;;
75429;SDS011;64127;51.488;5.462;2023-02-18T01:20:17;21.50;;;18.73;;
75429;SDS011;64127;51.488;5.462;2023-02-18T01:22:50;20.83;;;18.60;;
75429;SDS011;64127;51.488;5.462;2023-02-18T01:25:22;21.23;;;18.33;;
75429;SDS011;64127;51.488;5.462;2023-02-18T01:27:54;21.33;;;18.27;;
75429;SDS011;64127;51.488;5.462;2023-02-18T01:30:26;20.40;;;17.60;;
75429;SDS011;64127;51.488;5.462;2023-02-18T01:32:59;20.10;;;17.90;;
75429;SDS011;64127;51.488;5.462;2023-02-18T01:35:31;21.40;;;17.70;;
75429;SDS011;64127;51.488;5.462;2023-02-18T01:38:04;18.67;;;16.73;;
75429;SDS011;64127;51.488;5.462;2023-02-18T01:40:43;19.30;;;16.40;;
75429;SDS011;64127;51.488;5.462;2023-02-18T01:43:24;19.67;;;17.63;;
75429;SDS011;64127;51.488;5.462;2023-02-18T01:48:43;21.40;;;17.97;;
75429;SDS011;64127;51.488;5.462;2023-02-18T01:51:25;19.73;;;16.73;;
75429;SDS011;64127;51.488;5.462;2023-02-18T01:54:13;20.53;;;18.33;;
75429;SDS011;64127;51.488;5.462;2023-02-18T01:59:48;22.50;;;19.40;;
75429;SDS011;64127;51.488;5.462;2023-02-18T02:02:27;19.47;;;17.43;;
75429;SDS011;64127;51.488;5.462;2023-02-18T02:05:04;22.60;;;19.20;;
75429;SDS011;64127;51.488;5.462;2023-02-18T02:07:36;22.27;;;19.07;;
75429;SDS011;64127;51.488;5.462;2023-02-18T02:10:11;24.27;;;18.83;;
75429;SDS011;64127;51.488;5.462;2023-02-18T02:15:37;22.87;;;20.03;;
75429;SDS011;64127;51.488;5.462;2023-02-18T02:38:25;20.57;;;18.30;;
75429;SDS011;64127;51.488;5.462;2023-02-18T02:44:18;19.50;;;17.50;;
75429;SDS011;64127;51.488;5.462;2023-02-18T02:47:01;19.17;;;17.13;;
75429;SDS011;64127;51.488;5.462;2023-02-18T02:53:01;18.10;;;16.30;;
75429;SDS011;64127;51.488;5.462;2023-02-18T02:55:58;17.77;;;15.90;;
75429;SDS011;64127;51.488;5.462;2023-02-18T02:58:30;17.07;;;15.10;;
75429;SDS011;64127;51.488;5.462;2023-02-18T03:03:57;15.93;;;14.33;;
75429;SDS011;64127;51.488;5.462;2023-02-18T03:12:56;14.10;;;12.60;;
75429;SDS011;64127;51.488;5.462;2023-02-18T03:15:52;12.97;;;11.57;;
75429;SDS011;64127;51.488;5.462;2023-02-18T03:18:42;12.33;;;11.13;;
75429;SDS011;64127;51.488;5.462;2023-02-18T03:21:30;11.77;;;10.57;;
75429;SDS011;64127;51.488;5.462;2023-02-18T03:29:53;9.33;;;8.47;;
75429;SDS011;64127;51.488;5.462;2023-02-18T03:32:33;11.17;;;9.13;;
75429;SDS011;64127;51.488;5.462;2023-02-18T03:35:10;10.17;;;9.17;;
75429;SDS011;64127;51.488;5.462;2023-02-18T03:37:49;9.37;;;8.47;;
75429;SDS011;64127;51.488;5.462;2023-02-18T03:40:31;9.27;;;8.37;;
75429;SDS011;64127;51.488;5.462;2023-02-18T03:43:03;9.20;;;8.33;;
75429;SDS011;64127;51.488;5.462;2023-02-18T03:45:35;8.30;;;7.50;;
75429;SDS011;64127;51.488;5.462;2023-02-18T03:48:07;8.53;;;7.73;;
75429;SDS011;64127;51.488;5.462;2023-02-18T03:50:40;8.20;;;7.27;;
75429;SDS011;64127;51.488;5.462;2023-02-18T03:53:12;8.10;;;7.30;;
75429;SDS011;64127;51.488;5.462;2023-02-18T03:55:44;7.87;;;7.07;;
75429;SDS011;64127;51.488;5.462;2023-02-18T03:58:16;7.20;;;6.47;;
75429;SDS011;64127;51.488;5.462;2023-02-18T04:00:48;6.87;;;6.27;;
75429;SDS011;64127;51.488;5.462;2023-02-18T04:03:20;6.63;;;6.03;;
75429;SDS011;64127;51.488;5.462;2023-02-18T04:05:52;6.13;;;5.63;;
75429;SDS011;64127;51.488;5.462;2023-02-18T04:08:24;5.70;;;4.97;;
75429;SDS011;64127;51.488;5.462;2023-02-18T04:10:56;5.13;;;4.63;;
75429;SDS011;64127;51.488;5.462;2023-02-18T04:13:28;5.23;;;4.73;;
75429;SDS011;64127;51.488;5.462;2023-02-18T04:16:01;4.87;;;4.47;;
75429;SDS011;64127;51.488;5.462;2023-02-18T04:18:33;4.37;;;3.97;;
75429;SDS011;64127;51.488;5.462;2023-02-18T04:21:05;4.33;;;3.93;;
75429;SDS011;64127;51.488;5.462;2023-02-18T04:23:37;4.17;;;3.87;;
75429;SDS011;64127;51.488;5.462;2023-02-18T04:26:09;4.10;;;3.80;;
75429;SDS011;64127;51.488;5.462;2023-02-18T04:28:41;3.67;;;3.37;;
75429;SDS011;64127;51.488;5.462;2023-02-18T04:31:13;3.70;;;3.40;;
75429;SDS011;64127;51.488;5.462;2023-02-18T04:33:45;3.43;;;3.13;;
75429;SDS011;64127;51.488;5.462;2023-02-18T04:36:17;3.33;;;3.10;;
75429;SDS011;64127;51.488;5.462;2023-02-18T04:38:49;3.17;;;2.97;;
75429;SDS011;64127;51.488;5.462;2023-02-18T04:41:21;4.20;;;3.03;;
75429;SDS011;64127;51.488;5.462;2023-02-18T04:43:53;3.10;;;2.90;;
75429;SDS011;64127;51.488;5.462;2023-02-18T04:46:25;2.80;;;2.60;;
75429;SDS011;64127;51.488;5.462;2023-02-18T04:48:58;3.10;;;2.73;;
75429;SDS011;64127;51.488;5.462;2023-02-18T04:51:30;3.10;;;2.87;;
75429;SDS011;64127;51.488;5.462;2023-02-18T04:54:02;2.80;;;2.60;;
75429;SDS011;64127;51.488;5.462;2023-02-18T04:56:35;2.63;;;2.43;;
75429;SDS011;64127;51.488;5.462;2023-02-18T04:59:07;2.90;;;2.70;;
75429;SDS011;64127;51.488;5.462;2023-02-18T05:01:39;2.70;;;2.50;;
75429;SDS011;64127;51.488;5.462;2023-02-18T05:04:11;3.13;;;2.90;;
75429;SDS011;64127;51.488;5.462;2023-02-18T05:06:43;4.10;;;2.93;;
75429;SDS011;64127;51.488;5.462;2023-02-18T05:09:15;2.80;;;2.60;;
75429;SDS011;64127;51.488;5.462;2023-02-18T05:11:48;2.83;;;2.63;;
75429;SDS011;64127;51.488;5.462;2023-02-18T05:14:20;2.83;;;2.63;;
75429;SDS011;64127;51.488;5.462;2023-02-18T05:16:52;2.70;;;2.50;;
75429;SDS011;64127;51.488;5.462;2023-02-18T05:19:24;2.70;;;2.50;;
75429;SDS011;64127;51.488;5.462;2023-02-18T05:21:56;2.80;;;2.60;;
75429;SDS011;64127;51.488;5.462;2023-02-18T05:24:28;2.70;;;2.50;;
75429;SDS011;64127;51.488;5.462;2023-02-18T05:27:00;2.47;;;2.27;;
75429;SDS011;64127;51.488;5.462;2023-02-18T05:29:32;2.50;;;2.30;;
75429;SDS011;64127;51.488;5.462;2023-02-18T05:32:04;2.70;;;2.50;;
75429;SDS011;64127;51.488;5.462;2023-02-18T05:34:36;3.07;;;2.77;;
75429;SDS011;64127;51.488;5.462;2023-02-18T05:37:08;2.80;;;2.60;;
75429;SDS011;64127;51.488;5.462;2023-02-18T05:39:40;2.77;;;2.57;;
75429;SDS011;64127;51.488;5.462;2023-02-18T05:42:12;2.77;;;2.57;;
75429;SDS011;64127;51.488;5.462;2023-02-18T05:44:44;3.00;;;2.80;;
75429;SDS011;64127;51.488;5.462;2023-02-18T05:47:16;3.37;;;3.07;;
75429;SDS011;64127;51.488;5.462;2023-02-18T05:49:49;3.27;;;3.00;;
75429;SDS011;64127;51.488;5.462;2023-02-18T05:52:21;3.23;;;2.93;;
75429;SDS011;64127;51.488;5.462;2023-02-18T05:54:53;3.50;;;3.30;;
75429;SDS011;64127;51.488;5.462;2023-02-18T05:57:25;3.50;;;3.30;;
75429;SDS011;64127;51.488;5.462;2023-02-18T05:59:57;3.40;;;3.20;;
75429;SDS011;64127;51.488;5.462;2023-02-18T06:02:30;4.00;;;3.70;;
75429;SDS011;64127;51.488;5.462;2023-02-18T06:05:03;3.70;;;3.40;;
75429;SDS011;64127;51.488;5.462;2023-02-18T06:07:36;4.13;;;3.77;;
75429;SDS011;64127;51.488;5.462;2023-02-18T06:10:08;4.07;;;3.77;;
75429;SDS011;64127;51.488;5.462;2023-02-18T06:12:40;4.03;;;3.73;;
75429;SDS011;64127;51.488;5.462;2023-02-18T06:15:12;4.60;;;4.20;;
75429;SDS011;64127;51.488;5.462;2023-02-18T06:17:44;4.60;;;4.20;;
75429;SDS011;64127;51.488;5.462;2023-02-18T06:20:16;5.00;;;4.60;;
75429;SDS011;64127;51.488;5.462;2023-02-18T06:22:48;4.67;;;4.27;;
75429;SDS011;64127;51.488;5.462;2023-02-18T06:25:20;5.03;;;4.63;;
75429;SDS011;64127;51.488;5.462;2023-02-18T06:27:53;5.57;;;5.07;;
75429;SDS011;64127;51.488;5.462;2023-02-18T06:30:25;5.53;;;5.13;;
75429;SDS011;64127;51.488;5.462;2023-02-18T06:32:57;5.83;;;5.20;;
75429;SDS011;64127;51.488;5.462;2023-02-18T06:35:29;5.70;;;5.20;;
75429;SDS011;64127;51.488;5.462;2023-02-18T06:38:01;5.87;;;5.37;;
75429;SDS011;64127;51.488;5.462;2023-02-18T06:40:34;5.50;;;5.00;;
75429;SDS011;64127;51.488;5.462;2023-02-18T06:43:06;6.40;;;5.80;;
75429;SDS011;64127;51.488;5.462;2023-02-18T06:45:38;5.97;;;5.57;;
75429;SDS011;64127;51.488;5.462;2023-02-18T06:48:11;5.80;;;5.30;;
75429;SDS011;64127;51.488;5.462;2023-02-18T06:50:44;6.03;;;5.50;;
75429;SDS011;64127;51.488;5.462;2023-02-18T06:53:16;5.67;;;5.27;;
75429;SDS011;64127;51.488;5.462;2023-02-18T06:55:48;5.63;;;5.13;;
75429;SDS011;64127;51.488;5.462;2023-02-18T06:58:20;5.00;;;4.60;;
75429;SDS011;64127;51.488;5.462;2023-02-18T07:00:53;5.57;;;5.07;;
75429;SDS011;64127;51.488;5.462;2023-02-18T07:03:25;6.60;;;6.00;;
75429;SDS011;64127;51.488;5.462;2023-02-18T07:05:57;6.70;;;6.10;;
75429;SDS011;64127;51.488;5.462;2023-02-18T07:08:30;6.90;;;6.33;;
75429;SDS011;64127;51.488;5.462;2023-02-18T07:11:06;6.40;;;5.90;;
75429;SDS011;64127;51.488;5.462;2023-02-18T07:13:38;5.83;;;5.33;;
75429;SDS011;64127;51.488;5.462;2023-02-18T07:16:10;5.13;;;4.73;;
75429;SDS011;64127;51.488;5.462;2023-02-18T07:18:42;5.07;;;4.57;;
75429;SDS011;64127;51.488;5.462;2023-02-18T07:21:14;6.00;;;5.50;;
75429;SDS011;64127;51.488;5.462;2023-02-18T07:23:46;6.60;;;6.10;;
75429;SDS011;64127;51.488;5.462;2023-02-18T07:26:18;7.97;;;7.17;;
75429;SDS011;64127;51.488;5.462;2023-02-18T07:28:50;8.13;;;7.33;;
75429;SDS011;64127;51.488;5.462;2023-02-18T07:31:22;8.53;;;6.77;;
75429;SDS011;64127;51.488;5.462;2023-02-18T07:33:54;8.57;;;6.97;;
75429;SDS011;64127;51.488;5.462;2023-02-18T07:36:26;9.13;;;6.77;;
75429;SDS011;64127;51.488;5.462;2023-02-18T07:38:58;11.53;;;6.30;;
75429;SDS011;64127;51.488;5.462;2023-02-18T07:41:30;7.40;;;5.87;;
75429;SDS011;64127;51.488;5.462;2023-02-18T07:44:02;10.50;;;5.97;;
75429;SDS011;64127;51.488;5.462;2023-02-18T07:46:38;7.13;;;5.70;;
75429;SDS011;64127;51.488;5.462;2023-02-18T07:49:11;10.40;;;5.30;;
75429;SDS011;64127;51.488;5.462;2023-02-18T07:51:45;9.50;;;5.17;;
75429;SDS011;64127;51.488;5.462;2023-02-18T07:54:18;6.57;;;4.83;;
75429;SDS011;64127;51.488;5.462;2023-02-18T07:56:50;7.17;;;4.87;;
75429;SDS011;64127;51.488;5.462;2023-02-18T07:59:23;7.97;;;4.70;;
75429;SDS011;64127;51.488;5.462;2023-02-18T08:01:55;9.20;;;5.07;;
75429;SDS011;64127;51.488;5.462;2023-02-18T08:04:27;11.67;;;5.00;;
75429;SDS011;64127;51.488;5.462;2023-02-18T08:06:59;8.90;;;4.97;;
75429;SDS011;64127;51.488;5.462;2023-02-18T08:09:31;7.93;;;4.97;;
75429;SDS011;64127;51.488;5.462;2023-02-18T08:12:03;9.07;;;5.13;;
75429;SDS011;64127;51.488;5.462;2023-02-18T08:14:35;8.37;;;5.30;;
75429;SDS011;64127;51.488;5.462;2023-02-18T08:17:07;11.07;;;6.10;;
75429;SDS011;64127;51.488;5.462;2023-02-18T08:19:39;11.00;;;6.00;;
75429;SDS011;64127;51.488;5.462;2023-02-18T08:22:11;10.13;;;5.80;;
75429;SDS011;64127;51.488;5.462;2023-02-18T08:24:43;12.07;;;5.60;;
75429;SDS011;64127;51.488;5.462;2023-02-18T08:27:15;10.67;;;6.80;;
75429;SDS011;64127;51.488;5.462;2023-02-18T08:29:47;10.43;;;5.43;;
75429;SDS011;64127;51.488;5.462;2023-02-18T08:32:19;10.87;;;5.57;;
75429;SDS011;64127;51.488;5.462;2023-02-18T08:34:51;11.00;;;5.70;;
75429;SDS011;64127;51.488;5.462;2023-02-18T08:37:23;14.47;;;5.53;;
75429;SDS011;64127;51.488;5.462;2023-02-18T08:39:55;14.47;;;5.37;;
75429;SDS011;64127;51.488;5.462;2023-02-18T08:42:27;11.40;;;5.53;;
75429;SDS011;64127;51.488;5.462;2023-02-18T08:44:59;10.47;;;5.60;;
75429;SDS011;64127;51.488;5.462;2023-02-18T08:47:32;11.03;;;5.73;;
75429;SDS011;64127;51.488;5.462;2023-02-18T08:50:24;11.57;;;5.37;;
75429;SDS011;64127;51.488;5.462;2023-02-18T08:52:58;13.17;;;5.80;;
75429;SDS011;64127;51.488;5.462;2023-02-18T08:55:33;12.17;;;5.50;;
75429;SDS011;64127;51.488;5.462;2023-02-18T08:58:07;10.87;;;5.30;;
75429;SDS011;64127;51.488;5.462;2023-02-18T09:00:41;13.17;;;5.47;;
75429;SDS011;64127;51.488;5.462;2023-02-18T09:03:15;10.97;;;5.00;;
75429;SDS011;64127;51.488;5.462;2023-02-18T09:05:47;7.87;;;4.57;;
75429;SDS011;64127;51.488;5.462;2023-02-18T09:08:18;9.10;;;4.63;;
75429;SDS011;64127;51.488;5.462;2023-02-18T09:10:54;10.37;;;4.87;;
75429;SDS011;64127;51.488;5.462;2023-02-18T09:13:29;9.33;;;4.57;;
75429;SDS011;64127;51.488;5.462;2023-02-18T09:16:03;10.47;;;4.67;;
75429;SDS011;64127;51.488;5.462;2023-02-18T09:18:48;14.00;;;4.83;;
75429;SDS011;64127;51.488;5.462;2023-02-18T09:21:21;10.20;;;4.60;;
75429;SDS011;64127;51.488;5.462;2023-02-18T09:23:53;8.03;;;4.07;;
75429;SDS011;64127;51.488;5.462;2023-02-18T09:26:25;9.97;;;4.13;;
75429;SDS011;64127;51.488;5.462;2023-02-18T09:28:58;10.27;;;4.00;;
75429;SDS011;64127;51.488;5.462;2023-02-18T09:31:30;8.77;;;3.80;;
75429;SDS011;64127;51.488;5.462;2023-02-18T09:34:02;9.87;;;3.70;;
75429;SDS011;64127;51.488;5.462;2023-02-18T09:36:34;9.80;;;3.90;;
75429;SDS011;64127;51.488;5.462;2023-02-18T09:39:06;7.33;;;3.83;;
75429;SDS011;64127;51.488;5.462;2023-02-18T09:41:41;7.47;;;3.60;;
75429;SDS011;64127;51.488;5.462;2023-02-18T09:44:22;10.10;;;3.77;;
75429;SDS011;64127;51.488;5.462;2023-02-18T09:47:12;10.27;;;3.50;;
75429;SDS011;64127;51.488;5.462;2023-02-18T09:50:13;5.43;;;2.90;;
75429;SDS011;64127;51.488;5.462;2023-02-18T09:53:01;7.57;;;3.20;;
75429;SDS011;64127;51.488;5.462;2023-02-18T09:55:35;6.50;;;3.07;;
75429;SDS011;64127;51.488;5.462;2023-02-18T09:58:27;8.37;;;3.20;;
75429;SDS011;64127;51.488;5.462;2023-02-18T10:01:04;6.80;;;3.30;;
75429;SDS011;64127;51.488;5.462;2023-02-18T10:03:47;5.83;;;3.17;;
75429;SDS011;64127;51.488;5.462;2023-02-18T10:06:24;8.47;;;3.60;;
75429;SDS011;64127;51.488;5.462;2023-02-18T10:09:02;6.57;;;3.23;;
75429;SDS011;64127;51.488;5.462;2023-02-18T10:11:57;8.17;;;3.20;;
75429;SDS011;64127;51.488;5.462;2023-02-18T10:14:48;6.93;;;3.50;;
75429;SDS011;64127;51.488;5.462;2023-02-18T10:17:27;8.00;;;3.80;;
75429;SDS011;64127;51.488;5.462;2023-02-18T10:20:03;8.40;;;3.77;;
75429;SDS011;64127;51.488;5.462;2023-02-18T10:22:38;8.20;;;3.60;;
75429;SDS011;64127;51.488;5.462;2023-02-18T10:25:15;7.50;;;3.93;;
75429;SDS011;64127;51.488;5.462;2023-02-18T10:27:53;9.47;;;4.50;;
75429;SDS011;64127;51.488;5.462;2023-02-18T10:33:32;11.37;;;4.37;;
75429;SDS011;64127;51.488;5.462;2023-02-18T10:42:10;8.60;;;4.63;;
75429;SDS011;64127;51.488;5.462;2023-02-18T10:45:25;9.07;;;5.07;;
75429;SDS011;64127;51.488;5.462;2023-02-18T10:48:18;11.00;;;4.97;;
75429;SDS011;64127;51.488;5.462;2023-02-18T10:50:52;7.87;;;4.97;;
75429;SDS011;64127;51.488;5.462;2023-02-18T10:53:35;9.43;;;4.80;;
75429;SDS011;64127;51.488;5.462;2023-02-18T10:59:11;9.23;;;5.20;;
75429;SDS011;64127;51.488;5.462;2023-02-18T11:02:01;8.03;;;4.97;;
75429;SDS011;64127;51.488;5.462;2023-02-18T11:04:46;11.83;;;5.27;;
75429;SDS011;64127;51.488;5.462;2023-02-18T11:07:22;7.23;;;4.80;;
75429;SDS011;64127;51.488;5.462;2023-02-18T11:12:59;9.50;;;4.93;;
75429;SDS011;64127;51.488;5.462;2023-02-18T11:15:35;7.77;;;5.00;;
75429;SDS011;64127;51.488;5.462;2023-02-18T11:18:12;7.90;;;4.77;;
75429;SDS011;64127;51.488;5.462;2023-02-18T11:24:05;8.87;;;4.73;;
75429;SDS011;64127;51.488;5.462;2023-02-18T11:26:45;6.73;;;4.23;;
75429;SDS011;64127;51.488;5.462;2023-02-18T11:31:56;6.63;;;3.90;;
75429;SDS011;64127;51.488;5.462;2023-02-18T11:34:30;7.57;;;4.00;;
75429;SDS011;64127;51.488;5.462;2023-02-18T11:37:07;7.00;;;4.07;;
75429;SDS011;64127;51.488;5.462;2023-02-18T11:39:48;8.97;;;4.00;;
75429;SDS011;64127;51.488;5.462;2023-02-18T11:42:25;9.73;;;4.00;;
75429;SDS011;64127;51.488;5.462;2023-02-18T11:44:58;7.90;;;4.27;;
75429;SDS011;64127;51.488;5.462;2023-02-18T11:47:34;6.93;;;3.87;;
75429;SDS011;64127;51.488;5.462;2023-02-18T11:52:44;7.43;;;3.83;;
75429;SDS011;64127;51.488;5.462;2023-02-18T11:55:19;9.13;;;3.97;;
75429;SDS011;64127;51.488;5.462;2023-02-18T11:57:56;8.73;;;4.20;;
75429;SDS011;64127;51.488;5.462;2023-02-18T12:00:40;9.43;;;4.30;;
75429;SDS011;64127;51.488;5.462;2023-02-18T12:06:27;7.30;;;4.03;;
75429;SDS011;64127;51.488;5.462;2023-02-18T12:09:08;6.93;;;4.20;;
75429;SDS011;64127;51.488;5.462;2023-02-18T12:12:00;7.50;;;4.07;;
75429;SDS011;64127;51.488;5.462;2023-02-18T12:14:42;6.30;;;4.10;;
75429;SDS011;64127;51.488;5.462;2023-02-18T12:23:21;6.63;;;4.10;;
75429;SDS011;64127;51.488;5.462;2023-02-18T12:26:05;5.83;;;4.07;;
75429;SDS011;64127;51.488;5.462;2023-02-18T12:41:21;6.80;;;4.37;;
75429;SDS011;64127;51.488;5.462;2023-02-18T12:47:22;4.83;;;4.00;;
75429;SDS011;64127;51.488;5.462;2023-02-18T12:50:26;5.77;;;4.17;;
75429;SDS011;64127;51.488;5.462;2023-02-18T12:55:50;6.83;;;4.43;;
75429;SDS011;64127;51.488;5.462;2023-02-18T13:01:52;6.63;;;4.13;;
75429;SDS011;64127;51.488;5.462;2023-02-18T13:05:11;4.83;;;3.90;;
75429;SDS011;64127;51.488;5.462;2023-02-18T13:17:00;6.70;;;4.00;;
75429;SDS011;64127;51.488;5.462;2023-02-18T13:19:41;6.03;;;4.17;;
75429;SDS011;64127;51.488;5.462;2023-02-18T13:22:26;6.20;;;4.13;;
75429;SDS011;64127;51.488;5.462;2023-02-18T13:25:01;8.50;;;4.43;;
75429;SDS011;64127;51.488;5.462;2023-02-18T13:27:37;7.13;;;4.50;;
75429;SDS011;64127;51.488;5.462;2023-02-18T13:40:00;6.70;;;4.20;;
75429;SDS011;64127;51.488;5.462;2023-02-18T13:42:34;8.23;;;4.37;;
75429;SDS011;64127;51.488;5.462;2023-02-18T13:48:01;6.47;;;4.53;;
75429;SDS011;64127;51.488;5.462;2023-02-18T13:51:03;6.40;;;4.33;;
75429;SDS011;64127;51.488;5.462;2023-02-18T13:53:37;8.67;;;4.43;;
75429;SDS011;64127;51.488;5.462;2023-02-18T13:58:54;6.50;;;4.60;;
75429;SDS011;64127;51.488;5.462;2023-02-18T14:01:40;7.33;;;4.50;;
75429;SDS011;64127;51.488;5.462;2023-02-18T14:07:24;6.20;;;4.30;;
75429;SDS011;64127;51.488;5.462;2023-02-18T14:10:00;7.03;;;4.60;;
75429;SDS011;64127;51.488;5.462;2023-02-18T14:20:45;7.57;;;4.73;;
75429;SDS011;64127;51.488;5.462;2023-02-18T14:26:27;7.90;;;4.83;;
75429;SDS011;64127;51.488;5.462;2023-02-18T14:29:05;6.63;;;4.77;;
75429;SDS011;64127;51.488;5.462;2023-02-18T14:31:50;8.10;;;5.03;;
75429;SDS011;64127;51.488;5.462;2023-02-18T14:52:14;5.00;;;4.47;;
75429;SDS011;64127;51.488;5.462;2023-02-18T14:55:23;6.63;;;4.57;;
75429;SDS011;64127;51.488;5.462;2023-02-18T14:58:02;7.87;;;4.80;;
75429;SDS011;64127;51.488;5.462;2023-02-18T15:00:39;6.40;;;4.60;;
75429;SDS011;64127;51.488;5.462;2023-02-18T15:03:14;7.23;;;4.80;;
75429;SDS011;64127;51.488;5.462;2023-02-18T15:05:52;6.83;;;4.60;;
75429;SDS011;64127;51.488;5.462;2023-02-18T15:08:25;8.73;;;5.13;;
75429;SDS011;64127;51.488;5.462;2023-02-18T15:10:58;7.47;;;4.70;;
75429;SDS011;64127;51.488;5.462;2023-02-18T15:13:36;9.93;;;4.93;;
75429;SDS011;64127;51.488;5.462;2023-02-18T15:16:15;8.37;;;5.50;;
75429;SDS011;64127;51.488;5.462;2023-02-18T15:19:14;7.93;;;5.10;;
75429;SDS011;64127;51.488;5.462;2023-02-18T15:21:50;6.07;;;4.80;;
75429;SDS011;64127;51.488;5.462;2023-02-18T15:24:26;6.37;;;4.70;;
75429;SDS011;64127;51.488;5.462;2023-02-18T15:27:11;8.27;;;4.70;;
75429;SDS011;64127;51.488;5.462;2023-02-18T15:29:52;7.70;;;5.07;;
75429;SDS011;64127;51.488;5.462;2023-02-18T15:32:33;10.20;;;5.77;;
75429;SDS011;64127;51.488;5.462;2023-02-18T15:35:13;6.57;;;4.87;;
75429;SDS011;64127;51.488;5.462;2023-02-18T15:37:52;7.97;;;5.03;;
75429;SDS011;64127;51.488;5.462;2023-02-18T15:40:30;7.40;;;4.93;;
75429;SDS011;64127;51.488;5.462;2023-02-18T15:43:05;8.43;;;5.00;;
75429;SDS011;64127;51.488;5.462;2023-02-18T15:45:39;7.20;;;5.20;;
75429;SDS011;64127;51.488;5.462;2023-02-18T15:48:20;7.30;;;4.87;;
75429;SDS011;64127;51.488;5.462;2023-02-18T15:51:05;8.00;;;5.03;;
75429;SDS011;64127;51.488;5.462;2023-02-18T15:53:54;7.20;;;5.40;;
75429;SDS011;64127;51.488;5.462;2023-02-18T15:59:12;10.70;;;5.50;;
75429;SDS011;64127;51.488;5.462;2023-02-18T16:04:40;9.80;;;5.87;;
75429;SDS011;64127;51.488;5.462;2023-02-18T16:07:25;8.67;;;5.93;;
75429;SDS011;64127;51.488;5.462;2023-02-18T16:13:11;11.03;;;7.03;;
75429;SDS011;64127;51.488;5.462;2023-02-18T16:15:47;10.40;;;7.00;;
75429;SDS011;64127;51.488;5.462;2023-02-18T16:18:36;11.97;;;8.00;;
75429;SDS011;64127;51.488;5.462;2023-02-18T16:23:56;10.70;;;9.50;;
75429;SDS011;64127;51.488;5.462;2023-02-18T16:26:40;12.80;;;10.60;;
75429;SDS011;64127;51.488;5.462;2023-02-18T16:29:34;13.10;;;11.70;;
75429;SDS011;64127;51.488;5.462;2023-02-18T16:32:11;14.27;;;12.80;;
75429;SDS011;64127;51.488;5.462;2023-02-18T16:34:43;14.40;;;13.00;;
75429;SDS011;64127;51.488;5.462;2023-02-18T16:37:15;14.17;;;12.87;;
75429;SDS011;64127;51.488;5.462;2023-02-18T16:40:48;16.17;;;14.07;;
75429;SDS011;64127;51.488;5.462;2023-02-18T16:43:14;17.07;;;15.27;;
75429;SDS011;64127;51.488;5.462;2023-02-18T16:45:57;17.70;;;16.03;;
75429;SDS011;64127;51.488;5.462;2023-02-18T16:48:40;20.73;;;18.73;;
75429;SDS011;64127;51.488;5.462;2023-02-18T16:51:16;21.57;;;19.37;;
75429;SDS011;64127;51.488;5.462;2023-02-18T16:54:13;26.52;;;24.13;;
75429;SDS011;64127;51.488;5.462;2023-02-18T16:56:47;24.50;;;22.10;;
75429;SDS011;64127;51.488;5.462;2023-02-18T16:59:19;23.60;;;21.30;;
75429;SDS011;64127;51.488;5.462;2023-02-18T17:01:51;23.13;;;20.63;;
75429;SDS011;64127;51.488;5.462;2023-02-18T17:04:23;21.03;;;18.93;;
75429;SDS011;64127;51.488;5.462;2023-02-18T17:06:55;21.80;;;19.60;;
75429;SDS011;64127;51.488;5.462;2023-02-18T17:09:27;21.73;;;19.53;;
75429;SDS011;64127;51.488;5.462;2023-02-18T17:11:59;20.33;;;18.27;;
75429;SDS011;64127;51.488;5.462;2023-02-18T17:14:33;20.47;;;18.37;;
75429;SDS011;64127;51.488;5.462;2023-02-18T17:17:08;19.83;;;18.03;;
75429;SDS011;64127;51.488;5.462;2023-02-18T17:19:52;21.07;;;18.97;;
75429;SDS011;64127;51.488;5.462;2023-02-18T17:22:24;22.95;;;20.75;;
75429;SDS011;64127;51.488;5.462;2023-02-18T17:24:55;20.93;;;18.93;;
75429;SDS011;64127;51.488;5.462;2023-02-18T17:27:27;23.85;;;21.50;;
75429;SDS011;64127;51.488;5.462;2023-02-18T17:29:59;21.57;;;19.43;;
75429;SDS011;64127;51.488;5.462;2023-02-18T17:32:31;20.23;;;18.20;;
75429;SDS011;64127;51.488;5.462;2023-02-18T17:35:03;19.77;;;17.60;;
75429;SDS011;64127;51.488;5.462;2023-02-18T17:37:37;18.00;;;16.30;;
75429;SDS011;64127;51.488;5.462;2023-02-18T17:40:15;17.43;;;15.63;;
75429;SDS011;64127;51.488;5.462;2023-02-18T17:42:51;17.37;;;15.57;;
75429;SDS011;64127;51.488;5.462;2023-02-18T17:45:27;17.20;;;15.33;;
75429;SDS011;64127;51.488;5.462;2023-02-18T17:48:07;19.60;;;14.77;;
75429;SDS011;64127;51.488;5.462;2023-02-18T17:50:40;16.17;;;14.47;;
75429;SDS011;64127;51.488;5.462;2023-02-18T17:53:12;17.00;;;13.53;;
75429;SDS011;64127;51.488;5.462;2023-02-18T17:55:46;17.20;;;13.07;;
75429;SDS011;64127;51.488;5.462;2023-02-18T17:58:19;16.43;;;13.13;;
75429;SDS011;64127;51.488;5.462;2023-02-18T18:00:52;17.67;;;13.37;;
75429;SDS011;64127;51.488;5.462;2023-02-18T18:03:27;16.30;;;12.80;;
75429;SDS011;64127;51.488;5.462;2023-02-18T18:05:59;15.50;;;11.90;;
75429;SDS011;64127;51.488;5.462;2023-02-18T18:08:32;15.30;;;12.80;;
75429;SDS011;64127;51.488;5.462;2023-02-18T18:11:04;14.57;;;12.27;;
75429;SDS011;64127;51.488;5.462;2023-02-18T18:13:36;14.23;;;11.43;;
75429;SDS011;64127;51.488;5.462;2023-02-18T18:16:09;20.53;;;12.33;;
75429;SDS011;64127;51.488;5.462;2023-02-18T18:18:45;16.83;;;12.60;;
75429;SDS011;64127;51.488;5.462;2023-02-18T18:21:21;15.03;;;11.93;;
75429;SDS011;64127;51.488;5.462;2023-02-18T18:24:05;14.47;;;11.60;;